Flight Track Log - Related Links

Times and Time Zones

All times are in EDT time to prevent confusion due to time zone crossing. See the N483DA flight status page for this flight to view local times or setup timezone preferences in your user account.

Time Position Orientation Groundspeed Altitude Reporting Facility
EDT Latitude Longitude Course Direction KTS MPH feet Rate Location/Type
Sat 12:13:08 PM 27.3833 -82.5167 90° East 94 108 1,200  Level Tampa TRACON
Sat 12:14:08 PM 27.4000 -82.4833 61° Northeast 101 116 1,800 600 Climbing Tampa TRACON
Sat 12:15:08 PM 27.4167 -82.4667 42° Northeast 104 120 2,400 550 Climbing Tampa TRACON
Sat 12:16:08 PM 27.4333 -82.4500 42° Northeast 106 122 2,900 421 Climbing Tampa TRACON
Sat 12:17:02 PM 27.4667 -82.4333 24° Northeast 113 130 3,200 421 Climbing Tampa TRACON
Sat 12:18:02 PM 27.5000 -82.4167 24° Northeast 116 133 3,700 421 Climbing Tampa TRACON
Sat 12:18:56 PM 27.5167 -82.4000 42° Northeast 118 136 4,000 379 Climbing Tampa TRACON
Sat 12:20:00 PM 27.5289 -82.4122 318° Northwest  Level FlightAware Approximate
Sat 12:20:56 PM 27.5833 -82.3667 318° Northwest 118 136 4,800  Level Tampa TRACON
Sat 12:22:08 PM 27.6167 -82.3333 42° Northeast 129 148 5,000 100 Climbing Tampa TRACON
Sat 12:22:56 PM 27.6333 -82.3167 42° Northeast 130 150 5,000  Level Tampa TRACON
Sat 12:24:02 PM 27.6667 -82.3000 24° Northeast 121 139 5,000  Level Tampa TRACON
Sat 12:24:56 PM 27.7000 -82.2833 24° Northeast 118 136 5,000  Level Tampa TRACON
Sat 12:26:02 PM 27.7333 -82.2667 24° Northeast 119 137 5,000  Level Tampa TRACON
Sat 12:27:03 PM 27.7500 -82.2500 42° Northeast 119 137 5,000  Level Tampa TRACON
Sat 12:28:08 PM 27.7833 -82.2167 41° Northeast 118 136 5,000  Level Tampa TRACON
Sat 12:29:02 PM 27.8167 -82.2000 24° Northeast 120 138 5,000  Level Tampa TRACON
Sat 12:30:03 PM 27.8333 -82.1833 41° Northeast 122 140 5,000  Level Tampa TRACON
Sat 12:31:03 PM 27.8667 -82.1667 24° Northeast 122 140 5,000  Level Tampa TRACON
Sat 12:32:03 PM 27.9000 -82.1333 41° Northeast 121 139 5,000  Level Tampa TRACON
Sat 12:33:03 PM 27.9167 -82.1167 41° Northeast 118 136 5,000  Level Tampa TRACON
Sat 12:33:57 PM 27.9500 -82.1000 24° Northeast 121 139 5,000  Level Tampa TRACON
Sat 12:34:57 PM 27.9833 -82.0833 24° Northeast 121 139 5,000  Level Tampa TRACON
Sat 12:36:03 PM 28.0000 -82.0667 41° Northeast 121 139 5,000  Level Tampa TRACON
Sat 12:38:20 PM 28.0667 -82.0167 33° Northeast 117 135 5,000  Level Orlando TRACON
Sat 12:39:26 PM 28.1000 -81.9833 41° Northeast 119 137 5,000  Level Orlando TRACON
Sat 12:40:26 PM 28.1333 -81.9667 24° Northeast 119 137 5,000  Level Orlando TRACON
Sat 12:41:20 PM 28.1500 -81.9500 41° Northeast 116 133 5,000  Level Orlando TRACON
Sat 12:42:26 PM 28.1833 -81.9333 24° Northeast 117 135 5,000  Level Orlando TRACON
Sat 12:43:26 PM 28.2167 -81.9000 41° Northeast 127 146 5,000  Level Orlando TRACON
Sat 12:44:26 PM 28.2500 -81.8833 24° Northeast 126 145 5,000 -298 Level Orlando TRACON
Sat 12:45:27 PM 28.2667 -81.8667 41° Northeast 125 144 4,400 -496 Descending Orlando TRACON
Sat 12:46:27 PM 28.3000 -81.8500 24° Northeast 123 142 4,000 -190 Descending Orlando TRACON
Sat 12:47:33 PM 28.3333 -81.8167 41° Northeast 130 150 4,000  Level Orlando TRACON
Sat 12:48:27 PM 28.3667 -81.8000 24° Northeast 129 148 4,000  Level Orlando TRACON
Sat 12:49:22 PM 28.3833 -81.7833 41° Northeast 125 144 4,000  Level Orlando TRACON
Sat 12:50:21 PM 28.4167 -81.7667 24° Northeast 124 143 4,000  Level Orlando TRACON
Sat 12:51:27 PM 28.4500 -81.7500 24° Northeast 126 145 4,000  Level Orlando TRACON
Sat 12:52:28 PM 28.4833 -81.7167 41° Northeast 131 151 4,000  Level Orlando TRACON
Sat 12:53:22 PM 28.5167 -81.7000 24° Northeast 125 144 4,000  Level Orlando TRACON
Sat 12:54:28 PM 28.5500 -81.6833 24° Northeast 124 143 4,000  Level Orlando TRACON
Sat 12:55:28 PM 28.5667 -81.6667 41° Northeast 127 146 4,000  Level Orlando TRACON
Sat 12:56:28 PM 28.6000 -81.6333 41° Northeast 122 140 4,000  Level Orlando TRACON
Sat 12:57:22 PM 28.6167 -81.6000 60° Northeast 123 142 4,000  Level Orlando TRACON
Sat 12:58:34 PM 28.6500 -81.5667 41° Northeast 123 142 4,000  Level Orlando TRACON
Sat 12:59:23 PM 28.6667 -81.5500 41° Northeast 122 140 4,000 -397 Level Orlando TRACON
Sat 01:00:35 PM 28.7000 -81.5167 41° Northeast 129 148 3,200 -600 Descending Orlando TRACON
Sat 01:01:23 PM 28.7167 -81.4833 60° Northeast 125 144 2,800 -500 Descending Orlando TRACON

Login

Don't have an account? Register now (free) for customized features, flight alerts, and more!